sensor_id;sensor_type;location;lat;lon;timestamp;P1;durP1;ratioP1;P2;durP2;ratioP2
52226;SDS011;38190;59.928;10.446;2022-10-31T00:00:40;58.17;;;50.58;;
52226;SDS011;38190;59.928;10.446;2022-10-31T00:03:41;66.93;;;52.55;;
52226;SDS011;38190;59.928;10.446;2022-10-31T00:06:41;61.75;;;55.22;;
52226;SDS011;38190;59.928;10.446;2022-10-31T00:09:42;60.60;;;49.50;;
52226;SDS011;38190;59.928;10.446;2022-10-31T00:12:42;59.20;;;49.25;;
52226;SDS011;38190;59.928;10.446;2022-10-31T00:15:43;63.75;;;49.63;;
52226;SDS011;38190;59.928;10.446;2022-10-31T00:18:43;53.10;;;47.50;;
52226;SDS011;38190;59.928;10.446;2022-10-31T00:21:47;59.78;;;49.65;;
52226;SDS011;38190;59.928;10.446;2022-10-31T00:24:48;57.67;;;48.78;;
52226;SDS011;38190;59.928;10.446;2022-10-31T00:27:48;52.60;;;46.33;;
52226;SDS011;38190;59.928;10.446;2022-10-31T00:30:48;59.50;;;46.10;;
52226;SDS011;38190;59.928;10.446;2022-10-31T00:33:49;55.47;;;45.78;;
52226;SDS011;38190;59.928;10.446;2022-10-31T00:36:49;49.17;;;43.63;;
52226;SDS011;38190;59.928;10.446;2022-10-31T00:39:50;51.35;;;45.10;;
52226;SDS011;38190;59.928;10.446;2022-10-31T00:42:50;48.25;;;43.40;;
52226;SDS011;38190;59.928;10.446;2022-10-31T00:45:51;51.97;;;44.42;;
52226;SDS011;38190;59.928;10.446;2022-10-31T00:48:51;51.47;;;41.95;;
52226;SDS011;38190;59.928;10.446;2022-10-31T00:51:52;46.75;;;41.70;;
52226;SDS011;38190;59.928;10.446;2022-10-31T00:54:52;60.08;;;42.25;;
52226;SDS011;38190;59.928;10.446;2022-10-31T00:57:53;44.58;;;39.72;;
52226;SDS011;38190;59.928;10.446;2022-10-31T01:00:53;51.08;;;41.83;;
52226;SDS011;38190;59.928;10.446;2022-10-31T01:03:57;47.28;;;41.22;;
52226;SDS011;38190;59.928;10.446;2022-10-31T01:06:57;45.75;;;40.85;;
52226;SDS011;38190;59.928;10.446;2022-10-31T01:09:58;47.58;;;37.33;;
52226;SDS011;38190;59.928;10.446;2022-10-31T01:12:58;39.80;;;34.90;;
52226;SDS011;38190;59.928;10.446;2022-10-31T01:15:59;39.38;;;34.90;;
52226;SDS011;38190;59.928;10.446;2022-10-31T01:19:01;44.88;;;36.15;;
52226;SDS011;38190;59.928;10.446;2022-10-31T01:22:01;41.03;;;36.17;;
52226;SDS011;38190;59.928;10.446;2022-10-31T01:25:02;38.17;;;34.13;;
52226;SDS011;38190;59.928;10.446;2022-10-31T01:28:03;45.17;;;33.85;;
52226;SDS011;38190;59.928;10.446;2022-10-31T01:31:07;40.08;;;33.17;;
52226;SDS011;38190;59.928;10.446;2022-10-31T01:34:10;34.30;;;31.15;;
52226;SDS011;38190;59.928;10.446;2022-10-31T01:37:13;45.08;;;34.40;;
52226;SDS011;38190;59.928;10.446;2022-10-31T01:40:14;41.83;;;30.80;;
52226;SDS011;38190;59.928;10.446;2022-10-31T01:43:14;35.30;;;31.30;;
52226;SDS011;38190;59.928;10.446;2022-10-31T01:46:16;35.40;;;31.73;;
52226;SDS011;38190;59.928;10.446;2022-10-31T01:49:25;33.65;;;30.13;;
52226;SDS011;38190;59.928;10.446;2022-10-31T01:52:36;33.50;;;28.67;;
52226;SDS011;38190;59.928;10.446;2022-10-31T01:55:44;32.55;;;28.85;;
52226;SDS011;38190;59.928;10.446;2022-10-31T01:58:46;34.43;;;30.93;;
52226;SDS011;38190;59.928;10.446;2022-10-31T02:01:47;31.73;;;28.58;;
52226;SDS011;38190;59.928;10.446;2022-10-31T02:04:50;28.77;;;26.00;;
52226;SDS011;38190;59.928;10.446;2022-10-31T02:11:06;33.03;;;29.58;;
52226;SDS011;38190;59.928;10.446;2022-10-31T02:14:08;33.60;;;28.95;;
52226;SDS011;38190;59.928;10.446;2022-10-31T02:17:08;31.13;;;25.52;;
52226;SDS011;38190;59.928;10.446;2022-10-31T02:33:06;27.17;;;24.30;;
52226;SDS011;38190;59.928;10.446;2022-10-31T02:43:17;32.28;;;25.55;;
52226;SDS011;38190;59.928;10.446;2022-10-31T02:46:39;28.05;;;25.23;;
52226;SDS011;38190;59.928;10.446;2022-10-31T02:53:08;24.98;;;21.25;;
52226;SDS011;38190;59.928;10.446;2022-10-31T02:59:09;24.42;;;21.95;;
52226;SDS011;38190;59.928;10.446;2022-10-31T03:11:57;24.38;;;19.95;;
52226;SDS011;38190;59.928;10.446;2022-10-31T03:15:20;20.83;;;18.75;;
52226;SDS011;38190;59.928;10.446;2022-10-31T03:22:03;21.13;;;18.85;;
52226;SDS011;38190;59.928;10.446;2022-10-31T03:25:07;21.70;;;19.42;;
52226;SDS011;38190;59.928;10.446;2022-10-31T03:28:10;21.90;;;19.70;;
52226;SDS011;38190;59.928;10.446;2022-10-31T03:31:13;21.95;;;19.70;;
52226;SDS011;38190;59.928;10.446;2022-10-31T03:34:17;24.52;;;21.90;;
52226;SDS011;38190;59.928;10.446;2022-10-31T03:37:20;22.33;;;18.40;;
52226;SDS011;38190;59.928;10.446;2022-10-31T03:40:22;21.83;;;19.55;;
52226;SDS011;38190;59.928;10.446;2022-10-31T03:43:30;28.02;;;18.25;;
52226;SDS011;38190;59.928;10.446;2022-10-31T03:46:36;19.63;;;17.52;;
52226;SDS011;38190;59.928;10.446;2022-10-31T03:49:37;19.27;;;17.02;;
52226;SDS011;38190;59.928;10.446;2022-10-31T03:55:49;24.17;;;16.15;;
52226;SDS011;38190;59.928;10.446;2022-10-31T03:58:57;17.73;;;15.80;;
52226;SDS011;38190;59.928;10.446;2022-10-31T04:02:03;20.73;;;17.67;;
52226;SDS011;38190;59.928;10.446;2022-10-31T04:05:08;19.38;;;16.17;;
52226;SDS011;38190;59.928;10.446;2022-10-31T04:08:13;17.90;;;16.02;;
52226;SDS011;38190;59.928;10.446;2022-10-31T04:11:18;22.95;;;16.58;;
52226;SDS011;38190;59.928;10.446;2022-10-31T04:14:24;22.73;;;15.93;;
52226;SDS011;38190;59.928;10.446;2022-10-31T04:17:27;20.40;;;15.63;;
52226;SDS011;38190;59.928;10.446;2022-10-31T04:20:32;21.85;;;17.10;;
52226;SDS011;38190;59.928;10.446;2022-10-31T04:23:35;15.27;;;13.77;;
52226;SDS011;38190;59.928;10.446;2022-10-31T04:26:36;27.00;;;15.63;;
52226;SDS011;38190;59.928;10.446;2022-10-31T04:29:37;15.25;;;13.77;;
52226;SDS011;38190;59.928;10.446;2022-10-31T04:32:37;17.60;;;14.13;;
52226;SDS011;38190;59.928;10.446;2022-10-31T04:35:38;19.70;;;15.32;;
52226;SDS011;38190;59.928;10.446;2022-10-31T04:38:38;16.85;;;15.20;;
52226;SDS011;38190;59.928;10.446;2022-10-31T04:41:39;15.90;;;13.50;;
52226;SDS011;38190;59.928;10.446;2022-10-31T04:44:39;17.25;;;13.15;;
52226;SDS011;38190;59.928;10.446;2022-10-31T04:47:40;15.88;;;12.75;;
52226;SDS011;38190;59.928;10.446;2022-10-31T04:50:40;12.25;;;11.00;;
52226;SDS011;38190;59.928;10.446;2022-10-31T04:53:40;15.38;;;12.88;;
52226;SDS011;38190;59.928;10.446;2022-10-31T04:56:41;16.67;;;14.13;;
52226;SDS011;38190;59.928;10.446;2022-10-31T04:59:41;16.33;;;13.02;;
52226;SDS011;38190;59.928;10.446;2022-10-31T05:02:45;15.35;;;11.98;;
52226;SDS011;38190;59.928;10.446;2022-10-31T05:05:47;17.90;;;13.32;;
52226;SDS011;38190;59.928;10.446;2022-10-31T05:08:48;19.23;;;12.60;;
52226;SDS011;38190;59.928;10.446;2022-10-31T05:11:49;13.55;;;12.07;;
52226;SDS011;38190;59.928;10.446;2022-10-31T05:14:49;16.42;;;12.35;;
52226;SDS011;38190;59.928;10.446;2022-10-31T05:17:50;14.38;;;12.27;;
52226;SDS011;38190;59.928;10.446;2022-10-31T05:20:51;12.48;;;11.18;;
52226;SDS011;38190;59.928;10.446;2022-10-31T05:23:51;13.73;;;11.38;;
52226;SDS011;38190;59.928;10.446;2022-10-31T05:26:52;14.63;;;10.82;;
52226;SDS011;38190;59.928;10.446;2022-10-31T05:29:52;12.80;;;11.50;;
52226;SDS011;38190;59.928;10.446;2022-10-31T05:32:53;14.75;;;11.68;;
52226;SDS011;38190;59.928;10.446;2022-10-31T05:35:54;11.38;;;10.18;;
52226;SDS011;38190;59.928;10.446;2022-10-31T05:38:54;12.50;;;9.70;;
52226;SDS011;38190;59.928;10.446;2022-10-31T05:41:58;12.40;;;10.63;;
52226;SDS011;38190;59.928;10.446;2022-10-31T05:44:58;12.45;;;10.13;;
52226;SDS011;38190;59.928;10.446;2022-10-31T05:47:59;13.10;;;10.65;;
52226;SDS011;38190;59.928;10.446;2022-10-31T05:51:01;11.27;;;10.10;;
52226;SDS011;38190;59.928;10.446;2022-10-31T05:54:01;9.52;;;8.60;;
52226;SDS011;38190;59.928;10.446;2022-10-31T05:57:02;13.35;;;10.50;;
52226;SDS011;38190;59.928;10.446;2022-10-31T06:00:03;13.10;;;9.45;;
52226;SDS011;38190;59.928;10.446;2022-10-31T06:03:06;16.83;;;10.98;;
52226;SDS011;38190;59.928;10.446;2022-10-31T06:06:08;16.90;;;9.63;;
52226;SDS011;38190;59.928;10.446;2022-10-31T06:09:08;13.25;;;10.43;;
52226;SDS011;38190;59.928;10.446;2022-10-31T06:12:09;13.82;;;9.27;;
52226;SDS011;38190;59.928;10.446;2022-10-31T06:15:09;12.48;;;9.75;;
52226;SDS011;38190;59.928;10.446;2022-10-31T06:18:10;15.45;;;9.18;;
52226;SDS011;38190;59.928;10.446;2022-10-31T06:21:10;14.32;;;8.93;;
52226;SDS011;38190;59.928;10.446;2022-10-31T06:24:11;14.05;;;9.35;;
52226;SDS011;38190;59.928;10.446;2022-10-31T06:27:11;12.38;;;10.02;;
52226;SDS011;38190;59.928;10.446;2022-10-31T06:30:12;15.00;;;8.85;;
52226;SDS011;38190;59.928;10.446;2022-10-31T06:33:12;12.07;;;10.15;;
52226;SDS011;38190;59.928;10.446;2022-10-31T06:36:13;15.10;;;9.68;;
52226;SDS011;38190;59.928;10.446;2022-10-31T06:39:13;16.33;;;9.27;;
52226;SDS011;38190;59.928;10.446;2022-10-31T06:42:15;13.23;;;8.65;;
52226;SDS011;38190;59.928;10.446;2022-10-31T06:45:16;20.08;;;8.02;;
52226;SDS011;38190;59.928;10.446;2022-10-31T06:48:16;9.70;;;8.65;;
52226;SDS011;38190;59.928;10.446;2022-10-31T06:51:17;16.63;;;9.00;;
52226;SDS011;38190;59.928;10.446;2022-10-31T06:54:17;10.88;;;8.77;;
52226;SDS011;38190;59.928;10.446;2022-10-31T06:57:18;20.33;;;8.40;;
52226;SDS011;38190;59.928;10.446;2022-10-31T07:00:18;9.82;;;7.35;;
52226;SDS011;38190;59.928;10.446;2022-10-31T07:03:19;15.35;;;7.20;;
52226;SDS011;38190;59.928;10.446;2022-10-31T07:06:20;9.27;;;6.75;;
52226;SDS011;38190;59.928;10.446;2022-10-31T07:09:20;9.80;;;7.82;;
52226;SDS011;38190;59.928;10.446;2022-10-31T07:12:21;7.97;;;7.18;;
52226;SDS011;38190;59.928;10.446;2022-10-31T07:15:22;24.00;;;8.85;;
52226;SDS011;38190;59.928;10.446;2022-10-31T07:18:23;8.18;;;7.32;;
52226;SDS011;38190;59.928;10.446;2022-10-31T07:21:23;15.25;;;8.05;;
52226;SDS011;38190;59.928;10.446;2022-10-31T07:24:24;26.75;;;8.13;;
52226;SDS011;38190;59.928;10.446;2022-10-31T07:27:24;13.63;;;6.30;;
52226;SDS011;38190;59.928;10.446;2022-10-31T07:30:24;12.50;;;7.35;;
52226;SDS011;38190;59.928;10.446;2022-10-31T07:33:25;8.02;;;6.22;;
52226;SDS011;38190;59.928;10.446;2022-10-31T07:36:26;8.10;;;5.18;;
52226;SDS011;38190;59.928;10.446;2022-10-31T07:39:26;12.98;;;7.90;;
52226;SDS011;38190;59.928;10.446;2022-10-31T07:42:27;8.63;;;6.13;;
52226;SDS011;38190;59.928;10.446;2022-10-31T07:45:28;6.88;;;6.00;;
52226;SDS011;38190;59.928;10.446;2022-10-31T07:48:28;6.32;;;4.88;;
52226;SDS011;38190;59.928;10.446;2022-10-31T07:51:29;6.30;;;5.75;;
52226;SDS011;38190;59.928;10.446;2022-10-31T07:54:29;9.88;;;6.82;;
52226;SDS011;38190;59.928;10.446;2022-10-31T07:57:30;7.43;;;6.72;;
52226;SDS011;38190;59.928;10.446;2022-10-31T08:00:31;8.77;;;6.30;;
52226;SDS011;38190;59.928;10.446;2022-10-31T08:03:33;6.90;;;6.22;;
52226;SDS011;38190;59.928;10.446;2022-10-31T08:06:33;8.02;;;5.93;;
52226;SDS011;38190;59.928;10.446;2022-10-31T08:09:34;9.35;;;5.13;;
52226;SDS011;38190;59.928;10.446;2022-10-31T08:12:34;6.10;;;5.50;;
52226;SDS011;38190;59.928;10.446;2022-10-31T08:15:35;9.23;;;6.55;;
52226;SDS011;38190;59.928;10.446;2022-10-31T08:18:39;9.38;;;5.90;;
52226;SDS011;38190;59.928;10.446;2022-10-31T08:21:39;8.20;;;4.63;;
52226;SDS011;38190;59.928;10.446;2022-10-31T08:24:40;23.73;;;5.90;;
52226;SDS011;38190;59.928;10.446;2022-10-31T08:27:40;7.20;;;5.28;;
52226;SDS011;38190;59.928;10.446;2022-10-31T08:30:41;10.57;;;6.72;;
52226;SDS011;38190;59.928;10.446;2022-10-31T08:33:41;5.93;;;5.25;;
52226;SDS011;38190;59.928;10.446;2022-10-31T08:36:42;6.30;;;5.70;;
52226;SDS011;38190;59.928;10.446;2022-10-31T08:39:47;5.97;;;5.03;;
52226;SDS011;38190;59.928;10.446;2022-10-31T08:42:55;4.57;;;4.13;;
52226;SDS011;38190;59.928;10.446;2022-10-31T08:46:01;9.57;;;5.43;;
52226;SDS011;38190;59.928;10.446;2022-10-31T08:49:02;7.22;;;5.95;;
52226;SDS011;38190;59.928;10.446;2022-10-31T08:52:02;6.22;;;4.78;;
52226;SDS011;38190;59.928;10.446;2022-10-31T08:55:03;7.15;;;4.45;;
52226;SDS011;38190;59.928;10.446;2022-10-31T08:58:04;5.05;;;4.30;;
52226;SDS011;38190;59.928;10.446;2022-10-31T09:01:06;13.10;;;4.63;;
52226;SDS011;38190;59.928;10.446;2022-10-31T09:04:07;6.55;;;3.95;;
52226;SDS011;38190;59.928;10.446;2022-10-31T09:07:07;4.35;;;3.63;;
52226;SDS011;38190;59.928;10.446;2022-10-31T09:10:07;6.85;;;5.25;;
52226;SDS011;38190;59.928;10.446;2022-10-31T09:13:09;8.00;;;5.22;;
52226;SDS011;38190;59.928;10.446;2022-10-31T09:16:11;10.80;;;6.13;;
52226;SDS011;38190;59.928;10.446;2022-10-31T09:19:11;4.50;;;3.80;;
52226;SDS011;38190;59.928;10.446;2022-10-31T09:22:12;5.78;;;4.70;;
52226;SDS011;38190;59.928;10.446;2022-10-31T09:25:12;11.07;;;4.65;;
52226;SDS011;38190;59.928;10.446;2022-10-31T09:28:14;4.82;;;3.42;;
52226;SDS011;38190;59.928;10.446;2022-10-31T09:31:17;12.95;;;4.57;;
52226;SDS011;38190;59.928;10.446;2022-10-31T09:34:17;6.97;;;4.43;;
52226;SDS011;38190;59.928;10.446;2022-10-31T09:37:17;7.53;;;3.30;;
52226;SDS011;38190;59.928;10.446;2022-10-31T09:40:18;14.32;;;4.25;;
52226;SDS011;38190;59.928;10.446;2022-10-31T09:43:28;6.18;;;4.05;;
52226;SDS011;38190;59.928;10.446;2022-10-31T09:49:53;6.78;;;4.55;;
52226;SDS011;38190;59.928;10.446;2022-10-31T09:53:00;10.60;;;4.63;;
52226;SDS011;38190;59.928;10.446;2022-10-31T09:56:10;5.63;;;3.03;;
52226;SDS011;38190;59.928;10.446;2022-10-31T09:59:17;5.53;;;4.45;;
52226;SDS011;38190;59.928;10.446;2022-10-31T10:02:41;18.48;;;3.85;;
52226;SDS011;38190;59.928;10.446;2022-10-31T10:05:59;4.70;;;3.55;;
52226;SDS011;38190;59.928;10.446;2022-10-31T10:09:02;5.88;;;3.85;;
52226;SDS011;38190;59.928;10.446;2022-10-31T10:12:07;6.88;;;3.70;;
52226;SDS011;38190;59.928;10.446;2022-10-31T10:25:33;4.32;;;2.58;;
52226;SDS011;38190;59.928;10.446;2022-10-31T10:28:40;6.45;;;5.20;;
52226;SDS011;38190;59.928;10.446;2022-10-31T10:31:43;4.65;;;3.50;;
52226;SDS011;38190;59.928;10.446;2022-10-31T10:35:07;6.50;;;4.32;;
52226;SDS011;38190;59.928;10.446;2022-10-31T10:41:30;6.82;;;4.13;;
52226;SDS011;38190;59.928;10.446;2022-10-31T10:44:32;6.47;;;4.28;;
52226;SDS011;38190;59.928;10.446;2022-10-31T10:47:55;8.13;;;3.65;;
52226;SDS011;38190;59.928;10.446;2022-10-31T10:51:02;4.97;;;3.92;;
52226;SDS011;38190;59.928;10.446;2022-10-31T11:01:10;5.20;;;3.95;;
52226;SDS011;38190;59.928;10.446;2022-10-31T11:04:21;13.10;;;4.13;;
52226;SDS011;38190;59.928;10.446;2022-10-31T11:07:22;5.00;;;3.40;;
52226;SDS011;38190;59.928;10.446;2022-10-31T11:10:22;12.30;;;3.88;;
52226;SDS011;38190;59.928;10.446;2022-10-31T11:13:23;4.75;;;3.58;;
52226;SDS011;38190;59.928;10.446;2022-10-31T11:19:27;36.83;;;4.90;;
52226;SDS011;38190;59.928;10.446;2022-10-31T11:22:28;8.43;;;3.25;;
52226;SDS011;38190;59.928;10.446;2022-10-31T11:25:29;3.80;;;2.65;;
52226;SDS011;38190;59.928;10.446;2022-10-31T11:28:30;4.00;;;3.00;;
52226;SDS011;38190;59.928;10.446;2022-10-31T11:31:34;3.80;;;2.60;;
52226;SDS011;38190;59.928;10.446;2022-10-31T11:34:36;4.22;;;2.75;;
52226;SDS011;38190;59.928;10.446;2022-10-31T11:37:43;5.82;;;2.72;;
52226;SDS011;38190;59.928;10.446;2022-10-31T11:40:58;4.07;;;2.22;;
52226;SDS011;38190;59.928;10.446;2022-10-31T11:47:43;5.72;;;3.35;;
52226;SDS011;38190;59.928;10.446;2022-10-31T11:50:49;3.13;;;2.88;;
52226;SDS011;38190;59.928;10.446;2022-10-31T11:53:52;4.53;;;2.95;;
52226;SDS011;38190;59.928;10.446;2022-10-31T11:56:56;5.30;;;2.72;;
52226;SDS011;38190;59.928;10.446;2022-10-31T11:59:58;3.80;;;3.03;;
52226;SDS011;38190;59.928;10.446;2022-10-31T12:06:23;6.28;;;2.45;;
52226;SDS011;38190;59.928;10.446;2022-10-31T12:09:29;2.22;;;1.73;;
52226;SDS011;38190;59.928;10.446;2022-10-31T12:15:58;2.00;;;1.77;;
52226;SDS011;38190;59.928;10.446;2022-10-31T12:19:08;4.60;;;2.30;;
52226;SDS011;38190;59.928;10.446;2022-10-31T12:41:55;4.95;;;2.33;;
52226;SDS011;38190;59.928;10.446;2022-10-31T12:45:22;2.42;;;1.80;;
52226;SDS011;38190;59.928;10.446;2022-10-31T12:52:28;4.13;;;2.30;;
52226;SDS011;38190;59.928;10.446;2022-10-31T12:55:32;3.70;;;1.85;;
52226;SDS011;38190;59.928;10.446;2022-10-31T12:58:36;2.47;;;2.15;;
52226;SDS011;38190;59.928;10.446;2022-10-31T13:01:48;7.38;;;1.92;;
52226;SDS011;38190;59.928;10.446;2022-10-31T13:04:56;3.72;;;2.47;;
52226;SDS011;38190;59.928;10.446;2022-10-31T13:08:17;2.63;;;1.20;;
52226;SDS011;38190;59.928;10.446;2022-10-31T13:14:48;2.58;;;1.70;;
52226;SDS011;38190;59.928;10.446;2022-10-31T13:17:57;2.50;;;1.50;;
52226;SDS011;38190;59.928;10.446;2022-10-31T13:21:04;1.65;;;0.95;;
52226;SDS011;38190;59.928;10.446;2022-10-31T13:24:12;3.08;;;1.88;;
52226;SDS011;38190;59.928;10.446;2022-10-31T13:30:46;3.83;;;1.65;;
52226;SDS011;38190;59.928;10.446;2022-10-31T13:33:53;1.98;;;1.10;;
52226;SDS011;38190;59.928;10.446;2022-10-31T13:40:17;10.30;;;1.83;;
52226;SDS011;38190;59.928;10.446;2022-10-31T13:46:58;3.08;;;1.88;;
52226;SDS011;38190;59.928;10.446;2022-10-31T13:50:41;2.67;;;1.40;;
52226;SDS011;38190;59.928;10.446;2022-10-31T13:53:42;3.05;;;2.03;;
52226;SDS011;38190;59.928;10.446;2022-10-31T13:56:57;3.88;;;2.22;;
52226;SDS011;38190;59.928;10.446;2022-10-31T14:00:00;2.47;;;1.60;;
52226;SDS011;38190;59.928;10.446;2022-10-31T14:03:04;3.05;;;1.38;;
52226;SDS011;38190;59.928;10.446;2022-10-31T14:06:05;2.33;;;1.25;;
52226;SDS011;38190;59.928;10.446;2022-10-31T14:09:16;2.28;;;1.98;;
52226;SDS011;38190;59.928;10.446;2022-10-31T14:12:29;4.15;;;2.10;;
52226;SDS011;38190;59.928;10.446;2022-10-31T14:15:31;5.55;;;1.80;;
52226;SDS011;38190;59.928;10.446;2022-10-31T14:18:32;3.50;;;1.42;;
52226;SDS011;38190;59.928;10.446;2022-10-31T14:21:43;4.00;;;2.13;;
52226;SDS011;38190;59.928;10.446;2022-10-31T14:24:45;5.38;;;1.67;;
52226;SDS011;38190;59.928;10.446;2022-10-31T14:27:46;3.25;;;1.85;;
52226;SDS011;38190;59.928;10.446;2022-10-31T14:30:54;3.28;;;1.77;;
52226;SDS011;38190;59.928;10.446;2022-10-31T14:34:20;2.92;;;1.85;;
52226;SDS011;38190;59.928;10.446;2022-10-31T14:37:34;2.05;;;1.13;;
52226;SDS011;38190;59.928;10.446;2022-10-31T14:50:36;5.78;;;2.38;;
52226;SDS011;38190;59.928;10.446;2022-10-31T14:53:47;6.93;;;2.05;;
52226;SDS011;38190;59.928;10.446;2022-10-31T14:56:53;3.55;;;2.50;;
52226;SDS011;38190;59.928;10.446;2022-10-31T14:59:59;2.53;;;1.35;;
52226;SDS011;38190;59.928;10.446;2022-10-31T15:03:07;3.55;;;1.42;;
52226;SDS011;38190;59.928;10.446;2022-10-31T15:06:13;2.60;;;1.27;;
52226;SDS011;38190;59.928;10.446;2022-10-31T15:09:21;3.35;;;1.70;;
52226;SDS011;38190;59.928;10.446;2022-10-31T15:15:25;2.55;;;1.42;;
52226;SDS011;38190;59.928;10.446;2022-10-31T15:18:27;1.92;;;1.13;;
52226;SDS011;38190;59.928;10.446;2022-10-31T15:21:30;5.33;;;1.80;;
52226;SDS011;38190;59.928;10.446;2022-10-31T15:24:36;2.80;;;1.25;;
52226;SDS011;38190;59.928;10.446;2022-10-31T15:27:39;1.98;;;1.00;;
52226;SDS011;38190;59.928;10.446;2022-10-31T15:30:48;1.77;;;1.60;;
52226;SDS011;38190;59.928;10.446;2022-10-31T15:33:51;2.90;;;1.83;;
52226;SDS011;38190;59.928;10.446;2022-10-31T15:36:54;9.45;;;1.48;;
52226;SDS011;38190;59.928;10.446;2022-10-31T15:39:55;1.83;;;1.55;;
52226;SDS011;38190;59.928;10.446;2022-10-31T15:43:00;2.45;;;1.73;;
52226;SDS011;38190;59.928;10.446;2022-10-31T15:46:03;2.25;;;1.65;;
52226;SDS011;38190;59.928;10.446;2022-10-31T15:55:36;3.97;;;1.92;;
52226;SDS011;38190;59.928;10.446;2022-10-31T15:58:46;15.25;;;8.13;;
52226;SDS011;38190;59.928;10.446;2022-10-31T16:02:00;43.85;;;15.57;;
52226;SDS011;38190;59.928;10.446;2022-10-31T16:05:14;60.80;;;44.28;;
52226;SDS011;38190;59.928;10.446;2022-10-31T16:11:35;104.07;;;52.17;;
52226;SDS011;38190;59.928;10.446;2022-10-31T16:14:38;145.57;;;79.32;;
52226;SDS011;38190;59.928;10.446;2022-10-31T16:17:42;124.82;;;73.03;;
52226;SDS011;38190;59.928;10.446;2022-10-31T16:20:52;137.65;;;72.25;;
52226;SDS011;38190;59.928;10.446;2022-10-31T16:23:57;116.72;;;65.05;;
52226;SDS011;38190;59.928;10.446;2022-10-31T16:27:05;121.95;;;66.22;;
52226;SDS011;38190;59.928;10.446;2022-10-31T16:33:39;129.30;;;64.88;;
52226;SDS011;38190;59.928;10.446;2022-10-31T16:36:40;107.95;;;65.50;;
52226;SDS011;38190;59.928;10.446;2022-10-31T16:39:41;114.65;;;59.13;;
52226;SDS011;38190;59.928;10.446;2022-10-31T16:42:42;86.03;;;57.90;;
52226;SDS011;38190;59.928;10.446;2022-10-31T16:45:45;85.65;;;55.35;;
52226;SDS011;38190;59.928;10.446;2022-10-31T16:48:50;92.38;;;53.65;;
52226;SDS011;38190;59.928;10.446;2022-10-31T16:51:51;68.88;;;49.85;;
52226;SDS011;38190;59.928;10.446;2022-10-31T16:54:52;71.40;;;49.58;;
52226;SDS011;38190;59.928;10.446;2022-10-31T16:57:54;85.90;;;50.33;;
52226;SDS011;38190;59.928;10.446;2022-10-31T17:00:56;69.90;;;48.13;;
52226;SDS011;38190;59.928;10.446;2022-10-31T17:03:57;74.15;;;40.20;;
52226;SDS011;38190;59.928;10.446;2022-10-31T17:06:57;72.72;;;44.10;;
52226;SDS011;38190;59.928;10.446;2022-10-31T17:09:58;89.63;;;43.45;;
52226;SDS011;38190;59.928;10.446;2022-10-31T17:12:59;91.70;;;39.85;;
52226;SDS011;38190;59.928;10.446;2022-10-31T17:16:02;71.63;;;42.63;;
52226;SDS011;38190;59.928;10.446;2022-10-31T17:19:03;64.13;;;39.75;;
52226;SDS011;38190;59.928;10.446;2022-10-31T17:22:04;66.10;;;37.42;;
52226;SDS011;38190;59.928;10.446;2022-10-31T17:25:05;66.85;;;36.10;;
52226;SDS011;38190;59.928;10.446;2022-10-31T17:28:12;58.60;;;37.20;;
52226;SDS011;38190;59.928;10.446;2022-10-31T17:31:19;74.55;;;36.20;;
52226;SDS011;38190;59.928;10.446;2022-10-31T17:34:26;51.70;;;33.22;;
52226;SDS011;38190;59.928;10.446;2022-10-31T17:37:27;56.88;;;34.08;;
52226;SDS011;38190;59.928;10.446;2022-10-31T17:40:27;51.72;;;33.55;;
52226;SDS011;38190;59.928;10.446;2022-10-31T17:43:28;44.60;;;28.75;;
52226;SDS011;38190;59.928;10.446;2022-10-31T17:46:28;41.83;;;27.88;;
52226;SDS011;38190;59.928;10.446;2022-10-31T17:49:29;46.58;;;27.13;;
52226;SDS011;38190;59.928;10.446;2022-10-31T17:52:29;44.45;;;27.08;;
52226;SDS011;38190;59.928;10.446;2022-10-31T17:55:30;38.47;;;25.30;;
52226;SDS011;38190;59.928;10.446;2022-10-31T17:58:33;47.92;;;24.00;;
52226;SDS011;38190;59.928;10.446;2022-10-31T18:01:34;50.95;;;23.35;;
52226;SDS011;38190;59.928;10.446;2022-10-31T18:04:35;30.20;;;21.17;;
52226;SDS011;38190;59.928;10.446;2022-10-31T18:07:36;48.88;;;23.27;;
52226;SDS011;38190;59.928;10.446;2022-10-31T18:10:37;35.20;;;23.42;;
52226;SDS011;38190;59.928;10.446;2022-10-31T18:13:38;32.13;;;21.58;;
52226;SDS011;38190;59.928;10.446;2022-10-31T18:16:38;37.58;;;23.40;;
52226;SDS011;38190;59.928;10.446;2022-10-31T18:19:39;31.13;;;20.88;;
52226;SDS011;38190;59.928;10.446;2022-10-31T18:22:39;45.15;;;20.15;;
52226;SDS011;38190;59.928;10.446;2022-10-31T18:25:40;33.97;;;17.77;;
52226;SDS011;38190;59.928;10.446;2022-10-31T18:28:42;32.17;;;19.55;;
52226;SDS011;38190;59.928;10.446;2022-10-31T18:31:42;28.60;;;18.17;;
52226;SDS011;38190;59.928;10.446;2022-10-31T18:34:47;27.85;;;18.10;;
52226;SDS011;38190;59.928;10.446;2022-10-31T18:37:47;24.17;;;15.32;;
52226;SDS011;38190;59.928;10.446;2022-10-31T18:40:49;32.95;;;15.98;;
52226;SDS011;38190;59.928;10.446;2022-10-31T18:43:50;21.63;;;14.13;;
52226;SDS011;38190;59.928;10.446;2022-10-31T18:46:53;30.35;;;17.77;;
52226;SDS011;38190;59.928;10.446;2022-10-31T18:49:53;27.17;;;16.23;;
52226;SDS011;38190;59.928;10.446;2022-10-31T18:52:54;24.10;;;12.98;;
52226;SDS011;38190;59.928;10.446;2022-10-31T18:55:54;19.35;;;12.15;;
52226;SDS011;38190;59.928;10.446;2022-10-31T18:58:56;15.45;;;12.40;;
52226;SDS011;38190;59.928;10.446;2022-10-31T19:05:00;19.80;;;12.85;;
52226;SDS011;38190;59.928;10.446;2022-10-31T19:08:00;21.58;;;11.77;;
52226;SDS011;38190;59.928;10.446;2022-10-31T19:11:08;21.63;;;13.10;;
52226;SDS011;38190;59.928;10.446;2022-10-31T19:14:11;25.88;;;11.55;;
52226;SDS011;38190;59.928;10.446;2022-10-31T19:17:12;27.02;;;10.88;;
52226;SDS011;38190;59.928;10.446;2022-10-31T19:20:13;24.25;;;9.00;;
52226;SDS011;38190;59.928;10.446;2022-10-31T19:23:13;12.23;;;7.60;;
52226;SDS011;38190;59.928;10.446;2022-10-31T19:26:14;21.15;;;8.75;;
52226;SDS011;38190;59.928;10.446;2022-10-31T19:29:14;23.95;;;9.98;;
52226;SDS011;38190;59.928;10.446;2022-10-31T19:32:15;17.13;;;8.82;;
52226;SDS011;38190;59.928;10.446;2022-10-31T19:35:17;18.30;;;7.93;;
52226;SDS011;38190;59.928;10.446;2022-10-31T19:38:17;13.35;;;8.00;;
52226;SDS011;38190;59.928;10.446;2022-10-31T19:41:19;22.10;;;9.20;;
52226;SDS011;38190;59.928;10.446;2022-10-31T19:44:21;15.10;;;8.15;;
52226;SDS011;38190;59.928;10.446;2022-10-31T19:47:22;14.00;;;8.05;;
52226;SDS011;38190;59.928;10.446;2022-10-31T19:50:22;15.00;;;7.43;;
52226;SDS011;38190;59.928;10.446;2022-10-31T19:53:23;12.38;;;6.47;;
52226;SDS011;38190;59.928;10.446;2022-10-31T19:56:24;13.75;;;6.47;;
52226;SDS011;38190;59.928;10.446;2022-10-31T19:59:25;17.77;;;7.65;;
52226;SDS011;38190;59.928;10.446;2022-10-31T20:02:25;12.45;;;6.07;;
52226;SDS011;38190;59.928;10.446;2022-10-31T20:05:26;14.85;;;6.82;;
52226;SDS011;38190;59.928;10.446;2022-10-31T20:08:26;10.10;;;5.53;;
52226;SDS011;38190;59.928;10.446;2022-10-31T20:11:27;24.58;;;6.95;;
52226;SDS011;38190;59.928;10.446;2022-10-31T20:14:29;11.68;;;6.75;;
52226;SDS011;38190;59.928;10.446;2022-10-31T20:17:30;10.82;;;7.20;;